Time;durP1;ratioP1;P1;durP2;ratioP2;P2;SDS_P1;SDS_P2;PMS_P1;PMS_P2;Temp;Humidity;BMP_temperature;BMP_pressure;BME280_temperature;BME280_humidity;BME280_pressure;Samples;Min_cycle;Max_cycle;Signal;HPM_P1;HPM_P2
2022/06/22 00:00:37;;;;;;;1.10;1.02;;;19.70;50.50;;;;;;955923;146;27408;-70
2022/06/22 00:03:04;;;;;;;1.25;1.02;;;19.70;50.50;;;;;;954847;146;27387;-70
2022/06/22 00:05:37;;;;;;;1.07;1.07;;;19.60;50.60;;;;;;956230;146;27345;-70
2022/06/22 00:08:03;;;;;;;1.27;1.20;;;19.60;50.70;;;;;;953911;146;27428;-71
2022/06/22 00:10:48;;;;;;;2.12;0.90;;;19.60;50.70;;;;;;951439;146;27342;-72
2022/06/22 00:13:15;;;;;;;1.72;0.90;;;19.50;50.90;;;;;;955144;146;27323;-72
2022/06/22 00:15:42;;;;;;;1.40;1.15;;;19.50;50.90;;;;;;954786;146;27338;-70
2022/06/22 00:18:26;;;;;;;1.15;1.05;;;19.50;51.10;;;;;;954512;146;27280;-70
2022/06/22 00:20:52;;;;;;;1.20;1.10;;;19.40;51.20;;;;;;953913;146;27392;-70
2022/06/22 00:23:28;;;;;;;1.20;1.10;;;19.40;51.20;;;;;;954284;146;27384;-70
2022/06/22 00:25:58;;;;;;;2.17;1.37;;;19.40;51.30;;;;;;954811;146;27307;-71
2022/06/22 00:28:33;;;;;;;1.87;1.10;;;19.30;51.30;;;;;;951786;146;27506;-70
2022/06/22 00:31:03;;;;;;;0.85;0.85;;;19.30;51.50;;;;;;954545;146;27360;-70
2022/06/22 00:33:29;;;;;;;2.37;1.10;;;19.20;51.40;;;;;;953267;146;27402;-71
2022/06/22 00:36:01;;;;;;;1.87;1.35;;;19.20;51.60;;;;;;953501;146;27344;-70
2022/06/22 00:38:27;;;;;;;1.00;1.00;;;19.20;51.70;;;;;;951520;146;27357;-70
2022/06/22 00:40:54;;;;;;;1.62;1.20;;;19.20;51.90;;;;;;954316;146;27347;-70
2022/06/22 00:43:21;;;;;;;2.75;1.20;;;19.10;51.90;;;;;;953917;146;27404;-71
2022/06/22 00:45:47;;;;;;;1.27;1.17;;;19.10;52.00;;;;;;953258;146;27395;-71
2022/06/22 00:48:26;;;;;;;1.50;1.37;;;19.10;52.00;;;;;;953827;146;27379;-70
2022/06/22 00:51:01;;;;;;;1.27;1.17;;;19.10;52.20;;;;;;953370;146;28681;-70
2022/06/22 00:53:43;;;;;;;1.20;1.10;;;19.00;52.10;;;;;;952704;146;27408;-71
2022/06/22 00:56:15;;;;;;;1.20;1.02;;;19.00;52.30;;;;;;946564;146;27363;-72
2022/06/22 00:58:42;;;;;;;1.07;1.07;;;18.90;52.30;;;;;;946685;147;27340;-72
2022/06/22 01:01:08;;;;;;;1.45;1.27;;;18.90;52.40;;;;;;948161;147;27348;-70
2022/06/22 01:03:43;;;;;;;1.40;1.30;;;18.90;52.60;;;;;;948366;147;27734;-71
2022/06/22 01:06:10;;;;;;;1.20;1.10;;;18.80;52.60;;;;;;947871;147;27397;-71
2022/06/22 01:08:46;;;;;;;1.60;1.20;;;18.80;52.60;;;;;;947777;147;27373;-72
2022/06/22 01:12:16;;;;;;;1.92;1.20;;;18.80;52.70;;;;;;945714;147;27933;-70
2022/06/22 01:13:39;;;;;;;1.62;1.00;;;18.70;52.80;;;;;;947145;147;27425;-71
2022/06/22 01:16:05;;;;;;;0.90;0.90;;;18.70;53.00;;;;;;948445;147;27730;-71
2022/06/22 01:18:44;;;;;;;1.63;1.20;;;18.60;53.00;;;;;;948409;147;27313;-71
2022/06/22 01:21:20;;;;;;;1.07;1.00;;;18.60;53.10;;;;;;946784;147;27420;-71
2022/06/22 01:24:04;;;;;;;1.27;1.17;;;18.50;53.10;;;;;;948121;147;27422;-71
2022/06/22 01:26:33;;;;;;;1.10;1.02;;;18.50;53.30;;;;;;929334;147;27324;-71
2022/06/22 01:29:00;;;;;;;1.10;1.10;;;18.40;53.40;;;;;;915863;147;27309;-73
2022/06/22 01:31:27;;;;;;;1.00;1.00;;;18.30;53.60;;;;;;934044;147;27406;-71
2022/06/22 01:33:54;;;;;;;2.35;1.10;;;18.30;53.80;;;;;;947985;147;27350;-71
2022/06/22 01:36:22;;;;;;;2.22;1.00;;;18.20;54.00;;;;;;949224;147;27835;-71
2022/06/22 01:38:49;;;;;;;1.00;0.90;;;18.20;54.10;;;;;;946080;147;27340;-71
2022/06/22 01:41:40;;;;;;;1.10;1.10;;;18.10;54.30;;;;;;946247;147;27405;-70
2022/06/22 01:44:12;;;;;;;2.47;0.97;;;18.10;54.40;;;;;;949189;147;27311;-73
2022/06/22 01:47:09;;;;;;;0.90;0.90;;;18.00;54.40;;;;;;948084;147;27344;-74
2022/06/22 01:49:51;;;;;;;1.02;1.00;;;18.00;54.60;;;;;;948813;147;27355;-72
2022/06/22 01:52:23;;;;;;;1.93;1.13;;;17.90;54.50;;;;;;947636;147;28792;-72
2022/06/22 01:54:55;;;;;;;2.77;1.20;;;17.90;54.90;;;;;;947256;147;27409;-71
2022/06/22 01:57:22;;;;;;;1.50;1.40;;;17.90;55.00;;;;;;942533;149;27354;-72
2022/06/22 01:59:51;;;;;;;1.33;1.27;;;17.90;55.20;;;;;;943166;149;27323;-73
2022/06/22 02:02:18;;;;;;;2.23;1.67;;;17.90;55.30;;;;;;944413;149;27317;-71
2022/06/22 02:04:51;;;;;;;2.20;2.00;;;17.80;55.40;;;;;;940087;149;27329;-71
2022/06/22 02:10:38;;;;;;;2.02;1.82;;;17.80;55.50;;;;;;944000;149;27808;-71
2022/06/22 02:13:28;;;;;;;1.67;1.57;;;17.70;55.50;;;;;;945825;149;27472;-71
2022/06/22 02:15:56;;;;;;;1.93;1.80;;;17.60;55.40;;;;;;943654;149;27346;-71
2022/06/22 02:18:23;;;;;;;2.07;1.97;;;17.50;55.60;;;;;;945081;149;28304;-72
2022/06/22 02:20:49;;;;;;;2.00;1.80;;;17.40;55.80;;;;;;942579;149;27414;-72
2022/06/22 02:23:16;;;;;;;1.50;1.40;;;17.30;56.10;;;;;;942287;149;27368;-72
2022/06/22 02:25:51;;;;;;;2.83;1.60;;;17.20;56.20;;;;;;946023;149;27670;-72
2022/06/22 02:28:18;;;;;;;2.07;1.80;;;17.10;56.30;;;;;;942108;149;27402;-71
2022/06/22 02:30:45;;;;;;;1.67;1.57;;;17.00;56.90;;;;;;943523;149;27350;-72
2022/06/22 02:33:11;;;;;;;2.10;1.40;;;17.00;56.90;;;;;;946226;149;27288;-71
2022/06/22 02:35:38;;;;;;;1.33;1.23;;;16.90;57.00;;;;;;945558;149;27333;-73
2022/06/22 02:38:05;;;;;;;1.50;1.30;;;16.90;57.30;;;;;;946231;149;27423;-72
2022/06/22 02:40:32;;;;;;;1.47;1.37;;;16.90;57.50;;;;;;948038;149;27393;-72
2022/06/22 02:45:42;;;;;;;2.70;1.60;;;16.90;57.60;;;;;;948432;149;27753;-71
2022/06/22 02:48:12;;;;;;;1.40;1.30;;;16.90;57.80;;;;;;943478;149;27341;-71
2022/06/22 02:51:00;;;;;;;1.33;1.17;;;16.90;57.90;;;;;;943695;149;27377;-72
2022/06/22 02:53:34;;;;;;;1.37;1.27;;;16.90;58.00;;;;;;944362;149;27447;-72
2022/06/22 02:55:59;;;;;;;1.50;1.40;;;17.00;58.00;;;;;;946430;146;27362;-72
2022/06/22 02:58:31;;;;;;;1.60;1.50;;;17.00;58.00;;;;;;964032;146;27328;-72
2022/06/22 03:01:06;;;;;;;1.53;1.43;;;16.90;58.00;;;;;;962752;146;27241;-69
2022/06/22 03:03:33;;;;;;;1.80;1.70;;;16.90;58.00;;;;;;963516;146;27339;-73
2022/06/22 03:06:00;;;;;;;1.77;1.67;;;16.90;58.00;;;;;;964040;146;27419;-69
2022/06/22 03:08:26;;;;;;;1.80;1.70;;;16.90;57.50;;;;;;962216;146;27319;-69
2022/06/22 03:11:01;;;;;;;2.60;1.60;;;16.80;58.20;;;;;;962594;146;27314;-70
2022/06/22 03:13:37;;;;;;;1.30;1.27;;;16.80;58.50;;;;;;963958;146;27328;-69
2022/06/22 03:16:03;;;;;;;2.03;1.67;;;16.80;58.30;;;;;;963069;146;27397;-69
2022/06/22 03:18:30;;;;;;;1.90;1.80;;;16.70;58.40;;;;;;962277;146;27387;-69
2022/06/22 03:20:58;;;;;;;2.00;1.80;;;16.60;58.70;;;;;;963597;146;27719;-70
2022/06/22 03:23:32;;;;;;;1.90;1.40;;;16.60;58.80;;;;;;959831;146;27419;-69
2022/06/22 03:26:08;;;;;;;2.23;1.60;;;16.60;59.00;;;;;;961365;146;27919;-69
2022/06/22 03:28:34;;;;;;;2.53;1.57;;;16.50;59.10;;;;;;961875;146;27365;-69
2022/06/22 03:31:01;;;;;;;1.60;1.50;;;16.50;59.30;;;;;;962523;146;27311;-70
2022/06/22 03:33:39;;;;;;;1.60;1.50;;;16.50;59.50;;;;;;962806;146;27393;-72
2022/06/22 03:36:06;;;;;;;1.73;1.63;;;16.60;59.60;;;;;;956966;146;27331;-69
2022/06/22 03:38:32;;;;;;;1.70;1.60;;;16.60;59.70;;;;;;963620;146;27322;-69
2022/06/22 03:40:59;;;;;;;1.40;1.30;;;16.70;60.00;;;;;;961953;146;27283;-69
2022/06/22 03:43:31;;;;;;;2.17;1.30;;;16.70;60.10;;;;;;963240;146;27435;-70
2022/06/22 03:46:00;;;;;;;1.43;1.33;;;16.80;60.30;;;;;;962552;146;27448;-70
2022/06/22 03:48:30;;;;;;;2.13;1.60;;;16.90;60.30;;;;;;964270;146;27326;-71
2022/06/22 03:50:56;;;;;;;1.70;1.60;;;16.90;60.30;;;;;;962917;146;27318;-72
2022/06/22 03:53:38;;;;;;;2.33;1.93;;;17.00;60.30;;;;;;961647;146;27423;-73
2022/06/22 03:56:04;;;;;;;2.80;1.60;;;17.10;60.40;;;;;;963583;146;27330;-69
2022/06/22 03:58:31;;;;;;;2.30;1.52;;;17.20;60.30;;;;;;961318;146;27374;-69
2022/06/22 04:00:57;;;;;;;2.80;1.50;;;17.30;60.30;;;;;;963773;146;27417;-69
2022/06/22 04:03:24;;;;;;;3.87;1.70;;;17.30;60.30;;;;;;962846;146;27335;-70
2022/06/22 04:05:51;;;;;;;1.60;1.50;;;17.40;60.30;;;;;;964500;146;27322;-73
2022/06/22 04:08:26;;;;;;;1.70;1.60;;;17.50;60.40;;;;;;963637;146;28069;-69
2022/06/22 04:11:04;;;;;;;3.00;1.50;;;17.60;60.50;;;;;;961619;146;27300;-69
2022/06/22 04:13:49;;;;;;;1.57;1.47;;;17.70;60.50;;;;;;963188;146;27267;-70
2022/06/22 04:16:21;;;;;;;2.77;1.73;;;17.80;60.40;;;;;;963323;146;27315;-72
2022/06/22 04:19:05;;;;;;;1.90;1.52;;;17.90;60.20;;;;;;962461;146;27289;-69
2022/06/22 04:21:41;;;;;;;3.17;1.60;;;18.00;60.30;;;;;;963760;146;27384;-71
2022/06/22 04:24:11;;;;;;;1.57;1.47;;;18.10;60.10;;;;;;962064;146;27338;-69
2022/06/22 04:27:01;;;;;;;1.75;1.65;;;18.20;60.00;;;;;;962180;146;27287;-70
2022/06/22 04:29:39;;;;;;;2.27;1.60;;;18.30;60.90;;;;;;948647;146;27388;-69
2022/06/22 04:32:21;;;;;;;2.83;1.82;;;18.40;60.00;;;;;;963393;146;27269;-70
2022/06/22 04:34:56;;;;;;;1.80;1.70;;;18.50;59.80;;;;;;962309;146;27476;-69
2022/06/22 04:37:25;;;;;;;1.55;1.45;;;18.60;59.80;;;;;;963197;146;28933;-70
2022/06/22 04:39:52;;;;;;;1.85;1.70;;;18.70;59.80;;;;;;963040;146;27384;-68
2022/06/22 04:42:19;;;;;;;2.35;1.70;;;18.80;59.70;;;;;;963470;146;27292;-71
2022/06/22 04:44:45;;;;;;;1.98;1.80;;;18.90;59.70;;;;;;963136;146;27323;-72
2022/06/22 04:47:12;;;;;;;1.80;1.70;;;19.10;59.80;;;;;;962670;146;27330;-69
2022/06/22 04:49:38;;;;;;;3.27;1.92;;;19.20;59.70;;;;;;961926;146;27321;-69
2022/06/22 04:52:18;;;;;;;1.62;1.35;;;19.30;59.70;;;;;;941461;146;27330;-71
2022/06/22 04:54:44;;;;;;;1.92;1.70;;;19.50;59.50;;;;;;961295;146;27321;-70
2022/06/22 04:57:10;;;;;;;1.80;1.70;;;19.60;59.40;;;;;;962647;146;27991;-70
2022/06/22 04:59:37;;;;;;;1.62;1.52;;;19.80;59.60;;;;;;939107;147;27300;-69
2022/06/22 05:02:03;;;;;;;1.55;1.40;;;20.00;59.70;;;;;;948491;147;27344;-70
2022/06/22 05:04:32;;;;;;;1.70;1.50;;;20.30;59.60;;;;;;947444;147;27327;-70
2022/06/22 05:07:18;;;;;;;2.00;1.75;;;20.50;59.90;;;;;;948649;147;27343;-69
2022/06/22 05:09:44;;;;;;;1.35;1.25;;;20.80;59.40;;;;;;946410;147;27392;-70
2022/06/22 05:12:13;;;;;;;1.65;1.55;;;21.20;59.10;;;;;;946589;147;27350;-70
2022/06/22 05:14:40;;;;;;;3.45;1.80;;;21.60;58.60;;;;;;948258;147;27307;-70
2022/06/22 05:17:06;;;;;;;3.95;1.27;;;21.90;57.90;;;;;;947208;147;27319;-71
2022/06/22 05:19:36;;;;;;;1.57;1.25;;;22.20;57.50;;;;;;948199;147;27344;-69
2022/06/22 05:22:02;;;;;;;3.87;1.27;;;22.40;57.00;;;;;;950088;147;27320;-72
2022/06/22 05:24:31;;;;;;;1.70;1.40;;;22.80;56.90;;;;;;952313;147;27763;-73
2022/06/22 05:26:58;;;;;;;1.98;1.50;;;23.00;56.50;;;;;;953595;147;27401;-71
2022/06/22 05:29:27;;;;;;;1.60;1.50;;;23.30;56.00;;;;;;953389;147;27451;-69
2022/06/22 05:31:54;;;;;;;1.57;1.47;;;23.50;55.60;;;;;;951216;147;27415;-70
2022/06/22 05:34:21;;;;;;;1.47;1.32;;;23.80;55.00;;;;;;948737;147;27296;-72
2022/06/22 05:36:47;;;;;;;1.85;1.27;;;23.90;54.60;;;;;;950384;147;27951;-71
2022/06/22 05:39:14;;;;;;;1.35;1.20;;;24.10;54.30;;;;;;949281;147;27863;-69
2022/06/22 05:41:40;;;;;;;0.95;0.95;;;24.20;54.00;;;;;;950003;147;28536;-71
2022/06/22 05:44:07;;;;;;;1.35;1.20;;;24.40;54.00;;;;;;947634;147;27284;-70
2022/06/22 05:46:33;;;;;;;1.17;1.07;;;24.60;53.80;;;;;;947300;147;27422;-73
2022/06/22 05:49:00;;;;;;;1.52;1.20;;;24.80;53.40;;;;;;949610;147;27470;-70
2022/06/22 05:51:44;;;;;;;0.90;0.90;;;25.00;53.00;;;;;;946849;147;27726;-73
2022/06/22 05:54:16;;;;;;;1.07;1.07;;;25.20;52.60;;;;;;950359;147;28494;-69
2022/06/22 05:56:46;;;;;;;1.12;1.02;;;25.40;52.30;;;;;;947007;147;27414;-70
2022/06/22 05:59:37;;;;;;;1.37;1.15;;;25.50;52.00;;;;;;949404;147;27334;-70
2022/06/22 06:02:13;;;;;;;1.10;1.00;;;25.70;51.90;;;;;;949567;147;27403;-71
2022/06/22 06:04:42;;;;;;;2.08;1.05;;;26.00;51.90;;;;;;947170;147;27347;-70
2022/06/22 06:07:18;;;;;;;1.20;1.10;;;26.20;51.80;;;;;;949330;147;28409;-73
2022/06/22 06:09:44;;;;;;;1.15;1.07;;;26.50;51.70;;;;;;948645;147;27368;-70
2022/06/22 06:12:22;;;;;;;1.20;1.10;;;26.80;51.30;;;;;;947421;147;27346;-73
2022/06/22 06:14:49;;;;;;;1.00;1.00;;;27.20;51.10;;;;;;947500;147;27408;-72
2022/06/22 06:17:31;;;;;;;1.52;1.02;;;27.50;50.60;;;;;;946043;147;27309;-70
2022/06/22 06:19:58;;;;;;;1.22;1.10;;;27.90;50.50;;;;;;946415;147;27305;-71
2022/06/22 06:22:24;;;;;;;1.87;1.47;;;28.30;50.00;;;;;;946539;147;27307;-70
2022/06/22 06:27:39;;;;;;;0.90;0.90;;;29.00;49.00;;;;;;947611;147;27349;-70
2022/06/22 06:30:15;;;;;;;2.75;1.60;;;29.40;49.20;;;;;;947376;147;27458;-70
2022/06/22 06:32:57;;;;;;;4.35;1.40;;;29.90;48.10;;;;;;947811;147;27325;-71
2022/06/22 06:35:41;;;;;;;1.45;1.27;;;30.30;47.60;;;;;;945638;147;27293;-70
2022/06/22 06:38:16;;;;;;;1.47;1.20;;;30.80;47.40;;;;;;948383;147;27345;-70
2022/06/22 06:40:45;;;;;;;1.17;1.05;;;31.40;47.20;;;;;;946718;147;27316;-71
2022/06/22 06:43:21;;;;;;;1.02;0.80;;;32.00;46.70;;;;;;946543;147;27957;-72
2022/06/22 06:45:47;;;;;;;2.83;1.02;;;32.60;46.30;;;;;;947005;147;27421;-71
2022/06/22 06:48:14;;;;;;;0.82;0.70;;;33.40;45.90;;;;;;947208;147;27318;-72
2022/06/22 06:50:41;;;;;;;1.05;0.78;;;34.00;44.90;;;;;;947959;147;27318;-72
2022/06/22 06:53:26;;;;;;;2.15;0.95;;;34.80;44.10;;;;;;948255;147;26281;-72
2022/06/22 06:55:55;;;;;;;1.25;1.15;;;35.50;43.30;;;;;;946979;147;26318;-71
2022/06/22 06:58:40;;;;;;;1.95;1.37;;;36.10;42.60;;;;;;947212;147;26306;-71
2022/06/22 07:01:06;;;;;;;1.20;1.10;;;36.80;41.70;;;;;;954598;146;26623;-72
2022/06/22 07:03:33;;;;;;;1.22;1.07;;;37.50;41.20;;;;;;955719;146;26312;-75
2022/06/22 07:05:59;;;;;;;1.32;0.98;;;38.10;40.10;;;;;;952752;146;26339;-71
2022/06/22 07:08:38;;;;;;;1.15;0.90;;;38.80;39.40;;;;;;950409;146;27328;-71
2022/06/22 07:11:19;;;;;;;1.42;1.32;;;39.40;38.60;;;;;;954494;146;26252;-71
2022/06/22 07:13:48;;;;;;;1.95;1.10;;;40.00;38.00;;;;;;954859;146;26262;-72
2022/06/22 07:16:15;;;;;;;0.90;0.90;;;40.50;37.00;;;;;;954231;146;26448;-75
2022/06/22 07:18:45;;;;;;;2.25;0.90;;;41.00;36.20;;;;;;953185;146;26348;-72
2022/06/22 07:21:32;;;;;;;0.65;0.65;;;41.50;35.50;;;;;;950486;146;26296;-74
2022/06/22 07:24:02;;;;;;;0.80;0.80;;;41.90;34.80;;;;;;954057;146;26390;-76
2022/06/22 07:26:47;;;;;;;1.98;0.70;;;42.40;34.50;;;;;;954911;146;26361;-72
2022/06/22 07:29:32;;;;;;;1.12;0.88;;;43.00;33.80;;;;;;953086;146;26221;-72
2022/06/22 07:31:58;;;;;;;1.37;0.70;;;43.50;33.00;;;;;;945935;146;26241;-72
2022/06/22 07:34:25;;;;;;;0.80;0.80;;;44.10;32.50;;;;;;953328;146;26196;-74
2022/06/22 07:36:51;;;;;;;1.32;0.80;;;44.60;31.60;;;;;;954101;146;26182;-72
2022/06/22 07:39:27;;;;;;;1.77;0.88;;;45.10;30.70;;;;;;952564;146;26308;-74
2022/06/22 07:41:54;;;;;;;0.70;0.70;;;45.60;30.30;;;;;;955161;146;26405;-73
2022/06/22 07:44:20;;;;;;;1.00;0.70;;;46.00;29.70;;;;;;953781;146;26574;-73
2022/06/22 07:46:53;;;;;;;1.47;0.72;;;46.40;29.50;;;;;;953861;146;26186;-73
2022/06/22 07:49:19;;;;;;;1.20;1.10;;;46.80;29.10;;;;;;952868;146;26290;-72
2022/06/22 07:51:52;;;;;;;3.55;0.90;;;47.20;28.10;;;;;;956337;146;26263;-73
2022/06/22 07:54:21;;;;;;;0.80;0.80;;;47.40;27.50;;;;;;952978;146;26285;-73
2022/06/22 07:57:06;;;;;;;1.20;0.90;;;47.50;27.30;;;;;;952716;146;26237;-73
2022/06/22 07:59:38;;;;;;;0.68;0.55;;;47.60;27.00;;;;;;956704;146;26257;-74
2022/06/22 08:02:05;;;;;;;3.20;1.17;;;47.60;27.40;;;;;;963372;146;26272;-75
2022/06/22 08:04:38;;;;;;;1.27;0.60;;;47.60;26.80;;;;;;961502;146;26177;-73
2022/06/22 08:07:16;;;;;;;2.20;0.80;;;47.50;26.50;;;;;;963104;146;26173;-74
2022/06/22 08:09:52;;;;;;;0.95;0.68;;;47.60;26.60;;;;;;964240;146;26235;-73
2022/06/22 08:12:21;;;;;;;1.60;0.95;;;47.70;26.40;;;;;;963417;146;26157;-76
2022/06/22 08:14:47;;;;;;;0.95;0.75;;;47.80;26.40;;;;;;956580;146;26255;-73
2022/06/22 08:17:42;;;;;;;0.90;0.70;;;47.90;26.10;;;;;;961910;146;26161;-73
2022/06/22 08:20:08;;;;;;;1.47;0.82;;;48.00;25.80;;;;;;963440;146;26340;-74
2022/06/22 08:22:35;;;;;;;0.47;0.47;;;48.20;25.60;;;;;;963340;146;26576;-73
2022/06/22 08:25:02;;;;;;;0.70;0.70;;;48.40;25.40;;;;;;963224;146;26325;-72
2022/06/22 08:27:28;;;;;;;1.92;1.15;;;48.50;25.30;;;;;;963834;146;26183;-74
2022/06/22 08:29:55;;;;;;;2.30;0.55;;;48.70;25.10;;;;;;965016;146;26255;-77
2022/06/22 08:32:27;;;;;;;1.57;0.90;;;48.90;24.80;;;;;;962989;146;26224;-73
2022/06/22 08:34:56;;;;;;;1.12;0.70;;;49.00;24.50;;;;;;962730;146;26228;-73
2022/06/22 08:37:29;;;;;;;1.37;0.62;;;49.10;24.30;;;;;;963224;146;26356;-73
2022/06/22 08:40:07;;;;;;;1.67;0.80;;;49.10;24.10;;;;;;962808;146;26197;-74
2022/06/22 08:43:03;;;;;;;0.70;0.70;;;49.20;23.90;;;;;;920991;146;26247;-73
2022/06/22 08:45:54;;;;;;;1.85;0.70;;;49.30;23.80;;;;;;963393;146;26320;-72
2022/06/22 08:48:45;;;;;;;0.47;0.47;;;49.40;23.70;;;;;;964250;146;26255;-75
2022/06/22 08:51:31;;;;;;;0.88;0.72;;;49.50;23.50;;;;;;962422;146;26887;-72
2022/06/22 08:54:08;;;;;;;1.80;0.80;;;49.60;23.40;;;;;;963179;146;26221;-73
2022/06/22 08:56:44;;;;;;;1.22;0.78;;;49.70;23.10;;;;;;963750;146;26282;-73
2022/06/22 08:59:29;;;;;;;1.75;0.55;;;49.80;22.90;;;;;;961025;146;26339;-74
2022/06/22 09:02:01;;;;;;;0.53;0.53;;;49.80;22.70;;;;;;948848;146;26275;-73
2022/06/22 09:04:42;;;;;;;1.10;0.60;;;49.90;22.30;;;;;;947383;147;26248;-73
2022/06/22 09:07:20;;;;;;;1.77;0.80;;;50.00;22.00;;;;;;923742;147;26264;-76
2022/06/22 09:09:50;;;;;;;2.10;0.78;;;49.90;21.90;;;;;;947155;147;26305;-72
2022/06/22 09:12:34;;;;;;;2.85;1.00;;;49.70;21.70;;;;;;948822;147;26243;-74
2022/06/22 09:15:18;;;;;;;2.27;0.80;;;49.50;21.60;;;;;;947103;147;26243;-72
2022/06/22 09:18:06;;;;;;;1.65;0.78;;;49.20;21.60;;;;;;946875;147;26186;-73
2022/06/22 09:21:00;;;;;;;1.45;0.90;;;48.90;21.60;;;;;;945180;147;26328;-72
2022/06/22 09:23:33;;;;;;;2.02;0.70;;;48.60;21.60;;;;;;946945;147;26185;-74
2022/06/22 09:26:14;;;;;;;0.78;0.78;;;48.20;21.50;;;;;;947187;147;26293;-72
2022/06/22 09:28:47;;;;;;;2.40;0.78;;;47.90;21.50;;;;;;947424;147;26342;-73
2022/06/22 09:31:25;;;;;;;2.17;0.55;;;47.50;21.60;;;;;;949015;147;26209;-73
2022/06/22 09:34:13;;;;;;;2.27;0.70;;;47.00;21.50;;;;;;948243;147;26692;-73
2022/06/22 09:36:58;;;;;;;0.70;0.70;;;46.50;21.60;;;;;;946550;147;26217;-73
2022/06/22 09:39:36;;;;;;;1.47;0.95;;;46.00;22.00;;;;;;946658;147;26314;-74
2022/06/22 09:42:24;;;;;;;0.75;0.75;;;45.50;21.90;;;;;;947291;147;26341;-73
2022/06/22 09:45:09;;;;;;;1.65;0.90;;;45.10;21.90;;;;;;946908;147;26275;-72
2022/06/22 09:48:13;;;;;;;4.53;1.10;;;44.60;22.10;;;;;;949420;147;26273;-73
2022/06/22 09:51:17;;;;;;;3.15;0.88;;;44.20;22.50;;;;;;947773;147;26265;-75
2022/06/22 09:54:05;;;;;;;1.47;0.95;;;43.80;22.80;;;;;;947232;147;26263;-74
2022/06/22 09:56:38;;;;;;;3.67;0.90;;;43.70;23.20;;;;;;945361;147;26373;-73
2022/06/22 09:59:17;;;;;;;0.98;0.85;;;43.60;23.10;;;;;;948866;147;28309;-72
2022/06/22 10:02:07;;;;;;;1.55;1.00;;;43.50;23.20;;;;;;951463;146;26221;-73
2022/06/22 10:04:42;;;;;;;1.47;0.75;;;43.50;22.90;;;;;;951379;146;26257;-73
2022/06/22 10:07:09;;;;;;;1.22;1.02;;;43.60;23.40;;;;;;951751;146;26215;-75
2022/06/22 10:09:47;;;;;;;2.15;0.82;;;43.50;23.30;;;;;;952206;146;26386;-73
2022/06/22 10:12:17;;;;;;;1.55;0.82;;;43.50;23.30;;;;;;921909;146;26364;-72
2022/06/22 10:14:43;;;;;;;2.10;1.40;;;43.40;23.10;;;;;;952180;146;26321;-72
2022/06/22 10:17:28;;;;;;;1.92;1.20;;;43.30;23.00;;;;;;953173;146;26566;-73
2022/06/22 10:20:31;;;;;;;0.85;0.80;;;43.10;23.10;;;;;;953056;146;26329;-75
2022/06/22 10:23:10;;;;;;;1.17;1.07;;;42.80;23.00;;;;;;953845;146;26519;-74
2022/06/22 10:25:54;;;;;;;0.88;0.78;;;42.40;22.90;;;;;;954022;146;26251;-73
2022/06/22 10:28:29;;;;;;;2.27;1.15;;;42.00;22.90;;;;;;954099;146;26276;-72
2022/06/22 10:31:06;;;;;;;2.33;1.10;;;41.50;23.00;;;;;;954398;146;26263;-74
2022/06/22 10:33:47;;;;;;;2.77;1.30;;;41.10;23.10;;;;;;951428;146;26356;-72
2022/06/22 10:36:31;;;;;;;1.82;1.00;;;40.80;23.10;;;;;;954631;146;26241;-72
2022/06/22 10:39:16;;;;;;;1.77;0.90;;;40.30;23.50;;;;;;954175;146;26157;-72
2022/06/22 10:45:09;;;;;;;1.65;1.30;;;39.40;24.00;;;;;;955273;146;26225;-73
2022/06/22 10:47:48;;;;;;;3.52;1.52;;;39.10;24.20;;;;;;955275;146;26252;-74
2022/06/22 10:50:32;;;;;;;1.92;1.25;;;38.70;24.30;;;;;;954376;146;26292;-72
2022/06/22 10:53:17;;;;;;;1.37;1.22;;;38.40;24.90;;;;;;948112;146;28332;-72
2022/06/22 10:56:11;;;;;;;1.60;1.30;;;38.00;25.10;;;;;;955592;146;27323;-73
2022/06/22 10:58:43;;;;;;;1.00;1.00;;;37.80;25.50;;;;;;952215;146;27323;-73
2022/06/22 11:01:28;;;;;;;1.77;1.25;;;37.60;25.70;;;;;;952502;146;27530;-74
2022/06/22 11:04:22;;;;;;;1.55;1.17;;;37.50;25.80;;;;;;948635;147;27448;-72
2022/06/22 11:07:13;;;;;;;2.65;1.50;;;37.40;26.00;;;;;;948999;147;27373;-75
2022/06/22 11:10:14;;;;;;;1.57;1.17;;;37.20;25.80;;;;;;947923;147;27343;-73
2022/06/22 11:13:18;;;;;;;2.87;1.30;;;37.10;26.00;;;;;;947870;147;27461;-71
2022/06/22 11:15:59;;;;;;;1.20;1.10;;;37.00;26.10;;;;;;948758;147;27338;-73
2022/06/22 11:18:44;;;;;;;1.82;1.40;;;36.90;26.20;;;;;;946881;147;27437;-72
2022/06/22 11:21:28;;;;;;;1.40;1.30;;;36.80;26.30;;;;;;947165;147;27414;-72
2022/06/22 11:24:13;;;;;;;1.95;1.30;;;36.80;26.40;;;;;;947674;147;27391;-72
2022/06/22 11:30:59;;;;;;;1.20;1.10;;;36.90;26.50;;;;;;949004;147;27301;-72
2022/06/22 11:33:01;;;;;;;1.57;1.30;;;36.90;26.50;;;;;;937772;147;27346;-72
2022/06/22 11:35:40;;;;;;;5.50;1.47;;;36.80;26.40;;;;;;947956;147;27406;-72
2022/06/22 11:38:25;;;;;;;2.22;1.17;;;36.80;26.50;;;;;;947373;147;27440;-75
2022/06/22 11:41:00;;;;;;;1.30;1.07;;;36.70;26.40;;;;;;948191;147;27368;-74
2022/06/22 11:43:35;;;;;;;1.30;1.00;;;36.70;26.40;;;;;;947391;147;27317;-71
2022/06/22 11:46:17;;;;;;;2.08;1.30;;;36.70;26.50;;;;;;947783;147;27345;-72
2022/06/22 11:48:46;;;;;;;1.55;1.45;;;36.80;26.50;;;;;;949354;147;27329;-72
2022/06/22 11:51:28;;;;;;;1.17;1.00;;;36.90;26.50;;;;;;946583;147;26241;-72
2022/06/22 11:53:57;;;;;;;1.47;1.20;;;36.90;26.60;;;;;;948934;147;27357;-73
2022/06/22 11:56:32;;;;;;;1.50;1.32;;;37.00;26.30;;;;;;946357;147;27461;-74
2022/06/22 11:59:02;;;;;;;1.30;1.20;;;37.00;26.20;;;;;;948580;147;27331;-72
2022/06/22 12:01:46;;;;;;;2.22;1.40;;;37.10;26.10;;;;;;947542;146;27396;-72
2022/06/22 12:04:18;;;;;;;1.47;1.15;;;37.10;26.10;;;;;;954255;146;27299;-72
2022/06/22 12:06:48;;;;;;;1.20;1.10;;;37.00;26.20;;;;;;954229;146;27351;-72
2022/06/22 12:09:35;;;;;;;2.40;1.30;;;36.90;25.90;;;;;;954627;146;27426;-71
2022/06/22 12:12:20;;;;;;;1.35;1.20;;;36.80;25.80;;;;;;954122;146;27303;-74
2022/06/22 12:15:12;;;;;;;1.52;1.20;;;36.70;25.80;;;;;;955298;146;27276;-71
2022/06/22 12:18:05;;;;;;;1.70;1.27;;;36.50;26.00;;;;;;954260;146;27445;-72
2022/06/22 12:20:40;;;;;;;1.25;1.15;;;36.40;26.10;;;;;;955682;146;27742;-74
2022/06/22 12:23:09;;;;;;;2.10;1.20;;;36.40;26.20;;;;;;955044;146;27277;-71
2022/06/22 12:25:38;;;;;;;3.05;1.40;;;36.30;26.00;;;;;;951296;146;27310;-72
2022/06/22 12:28:09;;;;;;;1.60;1.17;;;36.30;25.90;;;;;;952586;146;27356;-74
2022/06/22 12:31:11;;;;;;;1.15;1.05;;;36.30;25.90;;;;;;945177;146;27360;-71
2022/06/22 12:34:00;;;;;;;1.50;1.05;;;36.30;25.80;;;;;;953484;146;27366;-72
2022/06/22 12:36:45;;;;;;;2.00;1.10;;;36.40;25.90;;;;;;952722;146;27740;-71
2022/06/22 12:39:32;;;;;;;1.05;1.05;;;36.40;25.90;;;;;;953967;146;27421;-72
2022/06/22 12:42:14;;;;;;;2.85;1.10;;;36.40;26.00;;;;;;955814;146;28366;-72
2022/06/22 12:45:01;;;;;;;1.17;1.17;;;36.50;26.20;;;;;;954056;146;27467;-72
2022/06/22 12:47:46;;;;;;;1.95;1.40;;;36.60;26.20;;;;;;953696;146;27658;-72
2022/06/22 12:50:28;;;;;;;1.65;1.47;;;36.60;26.20;;;;;;952227;146;27387;-74
2022/06/22 12:52:57;;;;;;;1.90;1.32;;;36.60;26.20;;;;;;954096;146;27355;-73
2022/06/22 12:55:30;;;;;;;1.10;1.00;;;36.70;26.50;;;;;;950985;146;27260;-75
2022/06/22 12:57:57;;;;;;;1.32;0.95;;;36.70;26.50;;;;;;954481;146;27432;-74
2022/06/22 13:00:23;;;;;;;1.57;1.10;;;36.80;26.20;;;;;;952132;146;27328;-73
2022/06/22 13:02:50;;;;;;;1.10;1.00;;;36.80;26.10;;;;;;951745;146;27374;-74
2022/06/22 13:05:22;;;;;;;1.15;1.05;;;36.90;26.00;;;;;;947022;147;27430;-74
2022/06/22 13:07:52;;;;;;;2.25;1.30;;;36.90;26.00;;;;;;947462;147;27431;-72
2022/06/22 13:10:18;;;;;;;1.20;1.10;;;36.90;25.90;;;;;;946700;147;27303;-74
2022/06/22 13:13:15;;;;;;;1.42;1.20;;;37.00;26.00;;;;;;948548;147;27401;-71
2022/06/22 13:15:51;;;;;;;0.93;0.93;;;37.00;26.10;;;;;;946896;147;27357;-74
2022/06/22 13:18:26;;;;;;;1.47;1.10;;;37.00;26.20;;;;;;947826;147;27466;-73
2022/06/22 13:20:52;;;;;;;1.30;1.20;;;37.10;26.30;;;;;;941195;147;27418;-72
2022/06/22 13:23:22;;;;;;;1.40;1.30;;;37.10;26.60;;;;;;946847;147;27332;-72
2022/06/22 13:25:48;;;;;;;1.32;1.20;;;37.20;26.50;;;;;;947985;147;27334;-73
2022/06/22 13:28:21;;;;;;;1.42;1.32;;;37.20;26.50;;;;;;947371;147;27337;-75
2022/06/22 13:30:48;;;;;;;1.30;1.20;;;37.20;26.30;;;;;;947481;147;26213;-75
2022/06/22 13:33:26;;;;;;;1.65;1.32;;;37.20;26.40;;;;;;946405;147;27432;-73
2022/06/22 13:36:11;;;;;;;1.10;1.00;;;37.20;26.20;;;;;;948906;147;27387;-72
2022/06/22 13:38:53;;;;;;;1.00;1.00;;;37.20;26.00;;;;;;946360;147;27465;-72
2022/06/22 13:41:25;;;;;;;1.22;1.00;;;37.20;26.00;;;;;;947489;147;27399;-72